createdAt,value
2019-03-04T00:01:41.002Z,7.90
2019-03-04T00:04:28.839Z,8.00
2019-03-04T00:07:07.288Z,7.90
2019-03-04T00:09:50.033Z,7.90
2019-03-04T00:12:32.070Z,7.90
2019-03-04T00:15:12.847Z,7.90
2019-03-04T00:17:57.569Z,7.90
2019-03-04T00:20:38.554Z,8.00
2019-03-04T00:23:19.662Z,7.90
2019-03-04T00:26:12.106Z,7.90
2019-03-04T00:28:43.216Z,7.90
2019-03-04T00:31:26.411Z,7.90
2019-03-04T00:34:14.652Z,7.80
2019-03-04T00:36:55.320Z,7.80
2019-03-04T00:39:37.231Z,7.80
2019-03-04T00:42:18.809Z,7.70
2019-03-04T00:45:08.355Z,7.80
2019-03-04T00:47:46.003Z,7.70
2019-03-04T00:50:28.257Z,7.70
2019-03-04T00:53:10.879Z,7.80
2019-03-04T00:55:55.563Z,7.80
2019-03-04T00:58:33.144Z,7.80
2019-03-04T01:01:16.282Z,7.80
2019-03-04T01:03:57.329Z,7.80
2019-03-04T01:06:46.798Z,7.70
2019-03-04T01:09:22.552Z,7.60
2019-03-04T01:12:07.344Z,7.50
2019-03-04T01:14:50.278Z,7.40
2019-03-04T01:17:37.412Z,7.30
2019-03-04T01:20:17.903Z,7.20
2019-03-04T01:23:00.030Z,7.10
2019-03-04T01:25:47.350Z,6.90
2019-03-04T01:28:27.900Z,6.80
2019-03-04T01:31:11.325Z,6.60
2019-03-04T01:34:01.789Z,6.50
2019-03-04T01:36:36.363Z,6.30
2019-03-04T01:39:17.519Z,6.30
2019-03-04T01:42:00.892Z,6.20
2019-03-04T01:44:44.223Z,6.20
2019-03-04T01:47:19.220Z,6.20
2019-03-04T01:50:08.308Z,6.10
2019-03-04T01:52:51.734Z,6.10
2019-03-04T01:55:26.464Z,6.10
2019-03-04T01:58:09.927Z,6.10
2019-03-04T06:40:52.064Z,3.10
2019-03-04T06:48:50.794Z,3.20
2019-03-04T06:52:55.990Z,3.10
2019-03-04T06:56:40.454Z,3.10
2019-03-04T06:59:41.283Z,3.00
2019-03-04T07:02:21.864Z,3.10
2019-03-04T07:05:42.754Z,3.20
2019-03-04T07:09:04.894Z,3.10
2019-03-04T07:12:02.345Z,3.10
2019-03-04T07:21:22.870Z,3.10
2019-03-04T07:27:29.872Z,3.20
2019-03-04T07:33:37.734Z,3.10
2019-03-04T07:36:36.765Z,3.20
2019-03-04T07:39:31.124Z,3.30
2019-03-04T07:42:28.721Z,3.40
2019-03-04T07:45:34.923Z,3.50
2019-03-04T07:48:31.513Z,3.50
2019-03-04T07:51:39.727Z,3.50
2019-03-04T07:57:32.468Z,3.80
2019-03-04T08:00:30.771Z,3.80
2019-03-04T08:10:20.015Z,3.90
2019-03-04T08:13:46.452Z,3.90
2019-03-04T08:16:56.632Z,4.00
2019-03-04T08:19:56.405Z,4.00
2019-03-04T08:22:53.850Z,4.10
2019-03-04T08:26:03.635Z,4.20
2019-03-04T08:28:58.794Z,4.30
2019-03-04T08:32:00.526Z,4.40
2019-03-04T08:35:07.139Z,4.40
2019-03-04T08:41:23.498Z,4.60
2019-03-04T08:44:23.153Z,4.70
2019-03-04T08:47:34.825Z,4.80
2019-03-04T08:50:38.740Z,4.80
2019-03-04T08:53:47.871Z,4.90
2019-03-04T08:57:03.887Z,4.90
2019-03-04T09:03:19.368Z,5.10
2019-03-04T09:06:22.757Z,5.10
2019-03-04T09:09:36.504Z,5.20
2019-03-04T09:12:42.878Z,5.20
2019-03-04T09:15:46.156Z,5.30
2019-03-04T09:18:57.300Z,5.30
2019-03-04T09:22:10.799Z,5.30
2019-03-04T09:25:17.701Z,5.30
2019-03-04T09:31:25.185Z,5.40
2019-03-04T09:34:34.385Z,5.40
2019-03-04T09:37:43.127Z,5.50
2019-03-04T09:43:56.911Z,5.60
2019-03-04T09:46:21.285Z,5.70
2019-03-04T09:49:01.985Z,5.80
2019-03-04T09:51:47.740Z,5.80
2019-03-04T09:54:19.759Z,5.80
2019-03-04T09:59:35.940Z,5.90
2019-03-04T10:02:36.958Z,6.30
2019-03-04T10:05:47.976Z,7.00
2019-03-04T10:08:50.937Z,7.30
2019-03-04T10:12:10.423Z,7.40
2019-03-04T10:15:20.424Z,7.90
2019-03-04T10:18:32.941Z,8.10
2019-03-04T10:21:39.857Z,7.70
2019-03-04T10:24:41.337Z,7.50
2019-03-04T10:27:57.459Z,7.30
2019-03-04T10:31:18.462Z,7.30
2019-03-04T10:34:26.756Z,7.30
2019-03-04T10:37:58.998Z,7.40
2019-03-04T10:40:45.101Z,7.50
2019-03-04T10:43:55.242Z,7.60
2019-03-04T10:46:53.792Z,7.70
2019-03-04T10:49:39.401Z,7.90
2019-03-04T10:52:09.288Z,8.10
2019-03-04T10:54:50.083Z,8.40
2019-03-04T10:57:24.198Z,8.50
2019-03-04T10:59:58.838Z,8.60
2019-03-04T11:03:01.435Z,8.90
2019-03-04T11:05:22.496Z,8.70
2019-03-04T11:07:53.460Z,8.90
2019-03-04T11:11:00.239Z,8.70
2019-03-04T11:13:16.733Z,8.30
2019-03-04T11:15:49.343Z,8.40
2019-03-04T11:18:45.268Z,8.40
2019-03-04T11:21:04.836Z,8.40
2019-03-04T11:23:34.665Z,8.60
2019-03-04T11:26:08.732Z,8.70
2019-03-04T11:28:37.654Z,9.00
2019-03-04T11:31:22.757Z,9.10
2019-03-04T11:33:44.170Z,9.10
2019-03-04T11:36:29.086Z,9.00
2019-03-04T11:39:20.559Z,9.10
2019-03-04T11:41:58.639Z,8.80
2019-03-04T11:44:33.428Z,8.70
2019-03-04T11:47:08.199Z,8.70
2019-03-04T11:50:16.676Z,8.70
2019-03-04T11:52:27.912Z,9.10
2019-03-04T11:54:59.517Z,9.70
2019-03-04T11:57:38.960Z,9.80
2019-03-04T12:00:18.727Z,9.40
2019-03-04T12:02:48.642Z,9.40
2019-03-04T12:05:21.600Z,9.40
2019-03-04T12:08:00.736Z,9.60
2019-03-04T12:10:30.490Z,9.40
2019-03-04T12:13:19.147Z,9.20
2019-03-04T12:15:49.177Z,9.00
2019-03-04T12:29:27.352Z,9.80
2019-03-04T12:35:07.098Z,9.70
2019-03-04T12:37:46.094Z,10.10
2019-03-04T12:40:18.943Z,10.20
2019-03-04T12:43:21.905Z,9.90
2019-03-04T12:45:42.255Z,9.70
2019-03-04T12:48:16.419Z,9.70
2019-03-04T12:50:51.203Z,9.70
2019-03-04T12:53:23.523Z,9.60
2019-03-04T12:55:57.801Z,9.50
2019-03-04T13:01:24.947Z,9.40
2019-03-04T13:04:12.639Z,9.30
2019-03-04T13:06:39.716Z,9.30
2019-03-04T13:09:14.994Z,9.40
2019-03-04T13:11:50.987Z,9.40
2019-03-04T13:14:23.699Z,9.40
2019-03-04T13:17:05.667Z,9.30
2019-03-04T13:19:36.618Z,9.30
2019-03-04T13:22:18.189Z,9.30
2019-03-04T13:24:45.774Z,9.20
2019-03-04T13:27:23.841Z,8.20
2019-03-04T13:30:12.743Z,7.00
2019-03-04T13:32:45.542Z,6.60
2019-03-04T13:35:24.065Z,6.40
2019-03-04T13:37:55.477Z,6.30
2019-03-04T13:40:35.024Z,6.30
2019-03-04T13:43:00.892Z,6.30
2019-03-04T13:46:08.913Z,6.20
2019-03-04T13:48:30.129Z,6.20
2019-03-04T13:50:59.997Z,6.40
2019-03-04T13:53:34.118Z,6.50
2019-03-04T13:56:15.571Z,6.60
2019-03-04T13:58:49.482Z,6.50
2019-03-04T14:01:26.945Z,6.60
2019-03-04T14:03:59.249Z,6.60
2019-03-04T14:06:32.030Z,6.60
2019-03-04T14:09:13.972Z,6.80
2019-03-04T14:11:52.330Z,6.80
2019-03-04T14:14:23.382Z,6.90
2019-03-04T14:19:50.248Z,7.20
2019-03-04T14:22:24.704Z,7.30
2019-03-04T14:24:56.422Z,7.30
2019-03-04T14:27:34.832Z,7.40
2019-03-04T14:30:36.881Z,7.40
2019-03-04T14:32:47.272Z,7.40
2019-03-04T14:35:19.914Z,7.50
2019-03-04T14:37:53.987Z,7.60
2019-03-04T14:40:35.980Z,7.60
2019-03-04T14:43:18.512Z,7.60
2019-03-04T14:45:54.307Z,7.50
2019-03-04T14:48:25.394Z,7.60
2019-03-04T14:50:57.664Z,7.60
2019-03-04T14:53:40.627Z,7.60
2019-03-04T14:56:22.404Z,7.80
2019-03-04T14:59:09.147Z,7.80
2019-03-04T15:01:25.086Z,7.80
2019-03-04T15:04:08.218Z,7.90
2019-03-04T15:06:40.510Z,8.00
2019-03-04T15:14:39.478Z,7.90
2019-03-04T15:17:09.085Z,7.80
2019-03-04T15:20:13.480Z,7.80
2019-03-04T15:22:34.227Z,7.70
2019-03-04T15:24:54.419Z,7.70
2019-03-04T15:27:34.827Z,7.60
2019-03-04T15:30:09.102Z,7.60
2019-03-04T15:32:42.094Z,7.60
2019-03-04T15:35:30.354Z,7.50
2019-03-04T15:38:04.116Z,7.50
2019-03-04T15:40:34.040Z,7.40
2019-03-04T15:43:12.946Z,7.40
2019-03-04T15:45:48.673Z,7.30
2019-03-04T15:48:28.374Z,7.30
2019-03-04T15:51:09.259Z,7.50
2019-03-04T15:53:45.392Z,7.70
2019-03-04T15:56:13.139Z,8.00
2019-03-04T15:58:52.353Z,8.10
2019-03-04T16:01:29.539Z,8.20
2019-03-04T16:04:12.486Z,8.00
2019-03-04T16:07:01.448Z,7.90
2019-03-04T16:09:34.152Z,7.90
2019-03-04T16:12:06.580Z,7.80
2019-03-04T16:15:17.103Z,7.80
2019-03-04T16:17:30.548Z,7.70
2019-03-04T16:20:15.554Z,7.80
2019-03-04T16:22:42.316Z,7.90
2019-03-04T16:25:24.408Z,8.00
2019-03-04T16:28:00.169Z,8.00
2019-03-04T16:30:50.287Z,7.90
2019-03-04T16:33:09.628Z,7.80
2019-03-04T16:35:42.695Z,7.70
2019-03-04T16:38:14.159Z,7.70
2019-03-04T16:40:46.638Z,7.60
2019-03-04T16:43:31.731Z,7.50
2019-03-04T16:46:06.328Z,7.50
2019-03-04T16:48:43.536Z,7.50
2019-03-04T16:51:18.024Z,7.40
2019-03-04T16:53:50.782Z,7.40
2019-03-04T16:56:39.347Z,7.50
2019-03-04T16:59:13.509Z,7.50
2019-03-04T17:01:49.462Z,7.50
2019-03-04T17:04:29.600Z,7.50
2019-03-04T17:07:09.492Z,7.40
2019-03-04T17:10:00.368Z,7.30
2019-03-04T17:12:30.548Z,7.20
2019-03-04T17:15:00.758Z,7.00
2019-03-04T17:18:01.032Z,6.90
2019-03-04T17:20:40.635Z,7.00
2019-03-04T17:23:20.741Z,7.00
2019-03-04T17:25:50.818Z,7.10
2019-03-04T17:28:25.800Z,7.10
2019-03-04T17:31:10.309Z,7.00
2019-03-04T17:33:50.809Z,7.00
2019-03-04T17:36:42.225Z,6.90
2019-03-04T17:39:23.380Z,6.80
2019-03-04T17:42:00.957Z,6.80
2019-03-04T17:44:28.811Z,6.70
2019-03-04T17:47:09.903Z,6.60
2019-03-04T17:49:48.891Z,6.50
2019-03-04T17:52:18.761Z,6.50
2019-03-04T17:55:18.986Z,6.40
2019-03-04T17:57:49.013Z,6.40
2019-03-04T17:59:58.107Z,6.30
2019-03-04T18:02:48.298Z,6.20
2019-03-04T18:05:22.154Z,6.30
2019-03-04T18:08:15.185Z,6.20
2019-03-04T18:10:49.337Z,6.20
2019-03-04T18:13:44.306Z,6.20
2019-03-04T18:16:14.829Z,6.10
2019-03-04T18:18:44.802Z,6.10
2019-03-04T18:21:17.462Z,6.10
2019-03-04T18:23:49.487Z,6.20
2019-03-04T18:26:37.683Z,6.20
2019-03-04T18:29:35.439Z,6.30
2019-03-04T18:33:02.938Z,6.30
2019-03-04T18:36:01.043Z,6.40
2019-03-04T18:38:57.548Z,6.40
2019-03-04T18:41:52.693Z,6.30
2019-03-04T18:44:52.412Z,6.30
2019-03-04T18:48:06.245Z,6.30
2019-03-04T18:50:37.705Z,6.40
2019-03-04T18:53:14.312Z,6.40
2019-03-04T18:55:50.581Z,6.30
2019-03-04T18:58:33.019Z,6.30
2019-03-04T19:00:55.578Z,6.30
2019-03-04T19:03:27.618Z,6.20
2019-03-04T19:06:27.307Z,6.10
2019-03-04T19:08:36.258Z,6.00
2019-03-04T19:11:43.219Z,6.00
2019-03-04T19:14:04.245Z,5.90
2019-03-04T19:16:45.052Z,5.80
2019-03-04T19:19:14.926Z,5.70
2019-03-04T19:21:49.655Z,5.70
2019-03-04T19:24:37.145Z,5.60
2019-03-04T19:27:02.960Z,5.60
2019-03-04T19:29:48.483Z,5.60
2019-03-04T19:32:43.936Z,5.60
2019-03-04T19:35:11.572Z,5.40
2019-03-04T19:38:09.988Z,5.40
2019-03-04T19:40:30.964Z,5.40
2019-03-04T19:43:13.083Z,5.30
2019-03-04T19:46:01.473Z,5.30
2019-03-04T19:48:33.698Z,5.20
2019-03-04T19:51:22.692Z,5.10
2019-03-04T19:53:56.916Z,5.10
2019-03-04T19:56:47.392Z,5.00
2019-03-04T19:59:28.014Z,5.00
2019-03-04T20:01:53.668Z,5.10
2019-03-04T20:04:25.899Z,5.10
2019-03-04T20:07:12.195Z,5.10
2019-03-04T20:10:01.579Z,5.10
2019-03-04T20:12:33.023Z,5.00
2019-03-04T20:15:01.812Z,4.90
2019-03-04T20:17:34.802Z,4.80
2019-03-04T20:20:59.979Z,4.70
2019-03-04T20:23:00.549Z,4.60
2019-03-04T20:25:51.660Z,4.50
2019-03-04T20:28:34.271Z,4.40
2019-03-04T20:31:22.934Z,4.30
2019-03-04T20:34:05.015Z,4.30
2019-03-04T20:36:42.308Z,4.20
2019-03-04T20:39:15.595Z,4.20
2019-03-04T20:41:53.329Z,4.10
2019-03-04T20:44:23.260Z,4.00
2019-03-04T20:46:55.176Z,4.00
2019-03-04T20:49:25.058Z,3.90
2019-03-04T20:51:57.713Z,3.90
2019-03-04T20:54:51.090Z,3.90
2019-03-04T20:57:41.734Z,3.80
2019-03-04T21:00:28.859Z,3.70
2019-03-04T21:03:16.898Z,3.70
2019-03-04T21:06:03.507Z,3.60
2019-03-04T21:09:25.776Z,3.60
2019-03-04T21:11:12.883Z,3.60
2019-03-04T21:13:51.581Z,3.50
2019-03-04T21:16:21.487Z,3.50
2019-03-04T21:18:54.580Z,3.50
2019-03-04T21:21:32.691Z,3.50
2019-03-04T21:24:06.027Z,3.50
2019-03-04T21:26:46.730Z,3.50
2019-03-04T21:29:51.386Z,3.40
2019-03-04T21:32:50.067Z,3.40
2019-03-04T21:36:14.345Z,3.30
2019-03-04T21:38:58.674Z,3.30
2019-03-04T21:41:51.984Z,3.10
2019-03-04T21:45:04.860Z,3.10
2019-03-04T21:47:38.699Z,3.20
2019-03-04T21:50:15.318Z,3.10
2019-03-04T21:53:16.267Z,3.10
2019-03-04T21:56:06.033Z,3.10
2019-03-04T21:58:49.903Z,3.10
2019-03-04T22:01:32.132Z,3.10
2019-03-04T22:04:06.117Z,3.10
2019-03-04T22:06:40.792Z,3.00
2019-03-04T22:09:11.624Z,3.00
2019-03-04T22:11:54.153Z,3.00
2019-03-04T22:14:35.022Z,3.10
2019-03-04T22:17:18.428Z,3.00
2019-03-04T22:19:49.324Z,3.00
2019-03-04T22:22:19.257Z,3.10
2019-03-04T22:24:57.503Z,3.00
2019-03-04T22:27:27.280Z,3.00
2019-03-04T22:30:07.274Z,3.00
2019-03-04T22:32:45.016Z,3.00
2019-03-04T22:35:17.416Z,3.00
2019-03-04T22:37:59.661Z,3.10
2019-03-04T22:40:41.485Z,3.10
2019-03-04T22:43:11.500Z,3.10
2019-03-04T22:45:48.961Z,3.00
2019-03-04T22:48:28.016Z,3.10
2019-03-04T22:50:58.841Z,3.00
2019-03-04T22:53:41.760Z,3.00
2019-03-04T22:56:33.524Z,3.00
2019-03-04T22:58:57.751Z,3.00
2019-03-04T23:03:10.808Z,2.90
2019-03-04T23:05:01.403Z,3.10
2019-03-04T23:07:54.239Z,3.10
2019-03-04T23:10:35.254Z,3.10
2019-03-04T23:13:53.753Z,3.20
2019-03-04T23:16:35.334Z,3.20
2019-03-04T23:19:05.780Z,3.20
2019-03-04T23:21:56.819Z,3.30
2019-03-04T23:24:34.896Z,3.30
2019-03-04T23:27:30.501Z,3.30
2019-03-04T23:30:05.549Z,3.30
2019-03-04T23:32:35.008Z,3.30
2019-03-04T23:35:09.275Z,3.30
2019-03-04T23:37:39.170Z,3.30
2019-03-04T23:40:21.178Z,3.30
2019-03-04T23:43:12.472Z,3.30
2019-03-04T23:46:01.246Z,3.40
2019-03-04T23:48:51.097Z,3.40
2019-03-04T23:51:48.123Z,3.50
2019-03-04T23:54:27.969Z,3.50
2019-03-04T23:56:57.833Z,3.60
2019-03-04T23:59:38.576Z,3.60
